Time;durP1;ratioP1;P1;durP2;ratioP2;P2;SDS_P1;SDS_P2;PMS_P1;PMS_P2;Temp;Humidity;BMP_temperature;BMP_pressure;BME280_temperature;BME280_humidity;BME280_pressure;Samples;Min_cycle;Max_cycle;Signal;HPM_P1;HPM_P2
2024/04/22 00:00:25;;;;;;;5.63;3.60;;;;;;;;;;5274467;27;20017;-76
2024/04/22 00:02:50;;;;;;;9.03;4.77;;;;;;;;;;5274014;27;20017;-75
2024/04/22 00:05:16;;;;;;;11.87;4.93;;;;;;;;;;5273358;27;20014;-75
2024/04/22 00:07:42;;;;;;;5.37;4.27;;;;;;;;;;5273616;27;20002;-76
2024/04/22 00:10:07;;;;;;;8.33;4.73;;;;;;;;;;5272983;27;20333;-75
2024/04/22 00:12:33;;;;;;;9.90;5.10;;;;;;;;;;5273141;27;20347;-77
2024/04/22 00:14:58;;;;;;;8.87;4.53;;;;;;;;;;5242759;27;20140;-76
2024/04/22 00:17:24;;;;;;;10.37;4.47;;;;;;;;;;5273069;27;20395;-75
2024/04/22 00:19:49;;;;;;;5.60;3.53;;;;;;;;;;5243303;27;20058;-75
2024/04/22 00:22:15;;;;;;;7.47;4.70;;;;;;;;;;5272525;27;20017;-74
2024/04/22 00:24:41;;;;;;;7.27;4.30;;;;;;;;;;5272601;27;20007;-76
2024/04/22 00:27:06;;;;;;;8.13;4.17;;;;;;;;;;5272538;27;20075;-75
2024/04/22 00:29:32;;;;;;;7.90;4.70;;;;;;;;;;5272846;27;20084;-75
2024/04/22 00:31:57;;;;;;;8.17;5.17;;;;;;;;;;5272526;27;20002;-73
2024/04/22 00:34:23;;;;;;;9.33;5.23;;;;;;;;;;5242491;27;20467;-76
2024/04/22 00:36:48;;;;;;;10.03;4.60;;;;;;;;;;5242541;27;20450;-74
2024/04/22 00:39:14;;;;;;;5.43;4.13;;;;;;;;;;5242433;27;20681;-75
2024/04/22 00:41:40;;;;;;;11.60;5.40;;;;;;;;;;5272767;27;20014;-76
2024/04/22 00:44:05;;;;;;;9.83;5.30;;;;;;;;;;5242421;27;20079;-74
2024/04/22 00:46:32;;;;;;;8.23;4.60;;;;;;;;;;5272830;27;20018;-76
2024/04/22 00:48:57;;;;;;;8.97;5.90;;;;;;;;;;5243074;27;20017;-75
2024/04/22 00:51:23;;;;;;;10.10;5.03;;;;;;;;;;5242726;27;20475;-75
2024/04/22 00:53:51;;;;;;;10.87;5.07;;;;;;;;;;5273150;27;20018;-76
2024/04/22 00:56:17;;;;;;;16.30;5.00;;;;;;;;;;5243129;27;20323;-78
2024/04/22 00:58:43;;;;;;;10.03;5.77;;;;;;;;;;5274343;27;20034;-77
2024/04/22 01:01:11;;;;;;;11.60;5.17;;;;;;;;;;5244869;27;20002;-77
2024/04/22 01:03:37;;;;;;;7.40;5.20;;;;;;;;;;5244927;27;20006;-76
2024/04/22 01:06:02;;;;;;;10.63;5.37;;;;;;;;;;5244079;27;20010;-78
2024/04/22 01:08:28;;;;;;;10.60;5.53;;;;;;;;;;5273085;27;20828;-78
2024/04/22 01:10:54;;;;;;;9.57;5.40;;;;;;;;;;5242412;27;20081;-78
2024/04/22 01:13:20;;;;;;;12.87;5.40;;;;;;;;;;5242101;27;20077;-78
2024/04/22 01:15:45;;;;;;;9.60;5.10;;;;;;;;;;5242726;27;20129;-78
2024/04/22 01:18:18;;;;;;;11.07;6.10;;;;;;;;;;5242368;27;20562;-77
2024/04/22 01:20:45;;;;;;;9.37;4.93;;;;;;;;;;5242790;27;20014;-75
2024/04/22 01:23:10;;;;;;;10.87;5.47;;;;;;;;;;5271891;27;20006;-76
2024/04/22 01:25:38;;;;;;;9.50;5.43;;;;;;;;;;5242356;27;20017;-75
2024/04/22 01:28:06;;;;;;;10.47;6.00;;;;;;;;;;5241103;27;20010;-75
2024/04/22 01:30:32;;;;;;;8.30;5.57;;;;;;;;;;5242400;27;20021;-75
2024/04/22 01:32:58;;;;;;;13.17;6.47;;;;;;;;;;5242913;27;20447;-74
2024/04/22 01:35:24;;;;;;;12.20;6.47;;;;;;;;;;5272250;27;20334;-76
2024/04/22 01:37:49;;;;;;;9.33;6.17;;;;;;;;;;5242116;27;20034;-75
2024/04/22 01:40:15;;;;;;;11.77;6.23;;;;;;;;;;5242143;27;20430;-75
2024/04/22 01:42:41;;;;;;;11.10;6.77;;;;;;;;;;5242302;27;20325;-74
2024/04/22 01:45:07;;;;;;;7.73;5.03;;;;;;;;;;5241762;27;20006;-75
2024/04/22 01:47:32;;;;;;;13.17;6.80;;;;;;;;;;5271720;27;20006;-75
2024/04/22 01:49:58;;;;;;;10.80;6.67;;;;;;;;;;5241805;27;20038;-74
2024/04/22 01:52:23;;;;;;;10.17;5.33;;;;;;;;;;5241914;27;20089;-79
2024/04/22 01:54:49;;;;;;;10.17;5.90;;;;;;;;;;5242212;27;20419;-76
2024/04/22 01:57:14;;;;;;;11.63;5.67;;;;;;;;;;5243758;27;20014;-78
2024/04/22 01:59:40;;;;;;;10.83;6.57;;;;;;;;;;5243549;27;20006;-77
2024/04/22 02:02:06;;;;;;;12.53;6.20;;;;;;;;;;5272252;27;20096;-77
2024/04/22 02:04:31;;;;;;;10.87;5.77;;;;;;;;;;5272595;27;20021;-78
2024/04/22 02:06:57;;;;;;;11.03;6.07;;;;;;;;;;5241653;27;20003;-78
2024/04/22 02:09:22;;;;;;;8.33;5.47;;;;;;;;;;5241099;27;20017;-76
2024/04/22 02:11:50;;;;;;;10.03;6.17;;;;;;;;;;5241583;27;20398;-76
2024/04/22 02:14:16;;;;;;;12.63;6.27;;;;;;;;;;5270670;27;20006;-75
2024/04/22 02:16:41;;;;;;;10.73;5.87;;;;;;;;;;5271271;27;20345;-77
2024/04/22 02:19:07;;;;;;;13.23;7.07;;;;;;;;;;5240991;27;20449;-79
2024/04/22 02:21:32;;;;;;;12.03;6.27;;;;;;;;;;5240809;27;20042;-78
2024/04/22 02:23:58;;;;;;;10.77;6.17;;;;;;;;;;5270875;27;20017;-78
2024/04/22 02:26:23;;;;;;;12.13;5.83;;;;;;;;;;5270847;27;20013;-77
2024/04/22 02:28:49;;;;;;;11.33;5.97;;;;;;;;;;5241006;27;19998;-78
2024/04/22 02:31:21;;;;;;;10.07;5.90;;;;;;;;;;5241162;27;20147;-79
2024/04/22 02:33:47;;;;;;;10.27;6.28;;;;;;;;;;5240790;27;20006;-76
2024/04/22 02:36:13;;;;;;;11.17;6.37;;;;;;;;;;5240520;27;20052;-77
2024/04/22 02:38:39;;;;;;;12.77;6.87;;;;;;;;;;5273177;27;20393;-77
2024/04/22 02:41:05;;;;;;;9.70;6.33;;;;;;;;;;5273541;27;20006;-75
2024/04/22 02:43:30;;;;;;;12.53;6.67;;;;;;;;;;5244027;27;20738;-78
2024/04/22 02:45:56;;;;;;;10.97;5.77;;;;;;;;;;5244294;27;20006;-76
2024/04/22 02:48:21;;;;;;;10.03;5.27;;;;;;;;;;5244131;27;20034;-77
2024/04/22 02:50:47;;;;;;;17.87;6.70;;;;;;;;;;5274340;27;20418;-77
2024/04/22 02:53:13;;;;;;;11.67;6.23;;;;;;;;;;5206419;27;20008;-77
2024/04/22 02:55:38;;;;;;;11.37;6.13;;;;;;;;;;5205827;27;20079;-77
2024/04/22 02:58:04;;;;;;;10.60;5.83;;;;;;;;;;5207578;27;20094;-77
2024/04/22 03:00:29;;;;;;;11.50;6.07;;;;;;;;;;5206990;27;20496;-78
2024/04/22 03:02:56;;;;;;;10.83;5.47;;;;;;;;;;5207078;27;20820;-76
2024/04/22 03:05:21;;;;;;;10.70;6.90;;;;;;;;;;5206001;27;20424;-75
2024/04/22 03:07:47;;;;;;;9.47;5.77;;;;;;;;;;5204270;27;20011;-79
2024/04/22 03:10:12;;;;;;;14.77;5.83;;;;;;;;;;5205206;27;20452;-77
2024/04/22 03:12:38;;;;;;;9.10;5.93;;;;;;;;;;5207144;27;20008;-76
2024/04/22 03:15:04;;;;;;;14.83;6.80;;;;;;;;;;5205166;27;20008;-76
2024/04/22 03:17:30;;;;;;;13.57;6.30;;;;;;;;;;5173655;27;20166;-79
2024/04/22 03:19:55;;;;;;;14.10;6.57;;;;;;;;;;5171855;27;20008;-77
2024/04/22 03:22:21;;;;;;;12.13;6.17;;;;;;;;;;5195742;27;20019;-78
2024/04/22 03:24:47;;;;;;;11.50;6.67;;;;;;;;;;5204598;27;20003;-76
2024/04/22 03:27:13;;;;;;;10.03;5.87;;;;;;;;;;5203990;27;20022;-78
2024/04/22 03:29:38;;;;;;;10.67;6.27;;;;;;;;;;5204742;27;20118;-77
2024/04/22 03:32:05;;;;;;;14.77;6.23;;;;;;;;;;5204739;27;20003;-76
2024/04/22 03:34:30;;;;;;;11.93;6.53;;;;;;;;;;5204934;27;20003;-78
2024/04/22 03:36:56;;;;;;;12.70;6.43;;;;;;;;;;5204431;27;20010;-77
2024/04/22 03:39:21;;;;;;;12.13;5.93;;;;;;;;;;5204379;27;20078;-79
2024/04/22 03:41:47;;;;;;;13.60;6.57;;;;;;;;;;5204871;27;20011;-78
2024/04/22 03:44:13;;;;;;;12.47;6.83;;;;;;;;;;5204352;27;20020;-78
2024/04/22 03:52:06;;;;;;;13.20;5.30;;;;;;;;;;5239281;27;20469;-78
2024/04/22 03:54:32;;;;;;;13.83;6.30;;;;;;;;;;5270988;27;20564;-78
2024/04/22 03:56:57;;;;;;;9.83;5.63;;;;;;;;;;5248546;27;20014;-77
2024/04/22 03:59:23;;;;;;;9.90;5.67;;;;;;;;;;5237321;27;20007;-78
2024/04/22 04:01:48;;;;;;;12.80;5.23;;;;;;;;;;5237677;27;20098;-80
2024/04/22 04:04:14;;;;;;;10.27;5.03;;;;;;;;;;5237417;27;20007;-77
2024/04/22 04:06:39;;;;;;;12.63;6.33;;;;;;;;;;5259163;27;20077;-77
2024/04/22 04:09:05;;;;;;;10.53;5.90;;;;;;;;;;5271278;27;20327;-77
2024/04/22 04:11:36;;;;;;;12.77;6.37;;;;;;;;;;5270657;27;20472;-79
2024/04/22 04:14:04;;;;;;;12.57;6.00;;;;;;;;;;5272564;27;20013;-77
2024/04/22 04:16:30;;;;;;;12.17;6.00;;;;;;;;;;5253504;27;20634;-78
2024/04/22 04:18:56;;;;;;;12.07;5.90;;;;;;;;;;5238201;27;20003;-79
2024/04/22 04:21:21;;;;;;;12.03;6.00;;;;;;;;;;5241063;27;20035;-78
2024/04/22 04:23:47;;;;;;;17.50;7.30;;;;;;;;;;5272321;27;20018;-78
2024/04/22 04:26:12;;;;;;;13.00;5.93;;;;;;;;;;5261096;27;20460;-76
2024/04/22 04:28:38;;;;;;;10.73;6.70;;;;;;;;;;5248187;27;20022;-77
2024/04/22 04:31:03;;;;;;;9.70;5.40;;;;;;;;;;5257616;27;20397;-76
2024/04/22 04:33:29;;;;;;;10.77;5.43;;;;;;;;;;5237515;27;20011;-78
2024/04/22 04:36:05;;;;;;;12.03;5.83;;;;;;;;;;5245856;27;20002;-77
2024/04/22 04:38:32;;;;;;;11.20;5.63;;;;;;;;;;5272408;27;20037;-76
2024/04/22 04:40:58;;;;;;;18.67;6.70;;;;;;;;;;5272388;27;20022;-76
2024/04/22 04:43:24;;;;;;;13.97;6.20;;;;;;;;;;5270174;27;20002;-77
2024/04/22 04:45:51;;;;;;;12.03;5.90;;;;;;;;;;5265135;27;20538;-77
2024/04/22 04:48:18;;;;;;;13.97;6.20;;;;;;;;;;5236722;27;20026;-78
2024/04/22 04:50:44;;;;;;;10.67;5.80;;;;;;;;;;5236712;27;20368;-78
2024/04/22 04:53:13;;;;;;;14.07;6.17;;;;;;;;;;5205301;27;19999;-77
2024/04/22 04:55:39;;;;;;;13.07;5.60;;;;;;;;;;5203050;27;20019;-77
2024/04/22 04:58:06;;;;;;;10.47;6.13;;;;;;;;;;5203788;27;20018;-77
2024/04/22 05:00:35;;;;;;;9.33;5.57;;;;;;;;;;5202772;27;20003;-77
2024/04/22 05:03:00;;;;;;;10.50;5.47;;;;;;;;;;5202357;27;20416;-79
2024/04/22 05:05:26;;;;;;;14.47;6.30;;;;;;;;;;5204807;27;20019;-78
2024/04/22 05:07:52;;;;;;;10.67;6.87;;;;;;;;;;5203664;27;20083;-80
2024/04/22 05:10:19;;;;;;;16.50;6.03;;;;;;;;;;5205064;27;20007;-77
2024/04/22 05:12:45;;;;;;;10.70;8.37;;;;;;;;;;5203169;27;20007;-78
2024/04/22 05:15:10;;;;;;;9.60;6.83;;;;;;;;;;5203045;27;20016;-79
2024/04/22 05:17:36;;;;;;;15.07;6.13;;;;;;;;;;5202465;27;20019;-78
2024/04/22 05:20:02;;;;;;;11.13;7.00;;;;;;;;;;5185407;27;20374;-78
2024/04/22 05:22:27;;;;;;;13.03;6.17;;;;;;;;;;5200054;27;20010;-77
2024/04/22 05:24:53;;;;;;;8.60;5.37;;;;;;;;;;5202131;27;20044;-77
2024/04/22 05:27:18;;;;;;;16.73;7.50;;;;;;;;;;5202642;27;20000;-78
2024/04/22 05:29:44;;;;;;;10.53;5.00;;;;;;;;;;5202591;27;20019;-78
2024/04/22 05:32:11;;;;;;;10.03;6.33;;;;;;;;;;5202113;27;20003;-78
2024/04/22 05:37:21;;;;;;;9.90;5.40;;;;;;;;;;5194717;27;20339;-78
2024/04/22 05:39:47;;;;;;;11.67;5.77;;;;;;;;;;5203461;27;20008;-78
2024/04/22 05:42:13;;;;;;;12.70;6.87;;;;;;;;;;5202540;27;20010;-76
2024/04/22 05:44:39;;;;;;;13.10;6.07;;;;;;;;;;5203770;27;20007;-78
2024/04/22 05:47:04;;;;;;;10.20;5.50;;;;;;;;;;5201610;27;20079;-79
2024/04/22 05:49:30;;;;;;;7.23;4.83;;;;;;;;;;5203090;27;20022;-77
2024/04/22 05:51:56;;;;;;;13.10;5.90;;;;;;;;;;5227402;27;20014;-74
2024/04/22 05:54:21;;;;;;;13.37;5.03;;;;;;;;;;5246190;27;19998;-75
2024/04/22 05:56:47;;;;;;;8.47;4.90;;;;;;;;;;5265812;27;20006;-75
2024/04/22 05:59:14;;;;;;;11.47;5.30;;;;;;;;;;5247374;27;20022;-75
2024/04/22 06:01:40;;;;;;;10.77;4.63;;;;;;;;;;5235613;27;20407;-75
2024/04/22 06:04:08;;;;;;;8.57;5.03;;;;;;;;;;5264641;27;20446;-74
2024/04/22 06:06:36;;;;;;;11.13;6.03;;;;;;;;;;5254147;27;20319;-75
2024/04/22 06:09:11;;;;;;;10.23;4.47;;;;;;;;;;5250318;27;20022;-74
2024/04/22 06:11:37;;;;;;;10.80;4.77;;;;;;;;;;5260413;27;20085;-75
2024/04/22 06:14:03;;;;;;;11.13;4.90;;;;;;;;;;5247032;27;20035;-74
2024/04/22 06:16:28;;;;;;;8.30;5.00;;;;;;;;;;5241222;27;20007;-75
2024/04/22 06:18:55;;;;;;;12.33;5.33;;;;;;;;;;5255828;27;20007;-75
2024/04/22 06:21:23;;;;;;;7.57;4.33;;;;;;;;;;5236366;27;20025;-76
2024/04/22 06:23:50;;;;;;;10.53;5.27;;;;;;;;;;5243707;27;20039;-76
2024/04/22 06:26:15;;;;;;;7.67;5.57;;;;;;;;;;5267070;27;20133;-74
2024/04/22 06:28:41;;;;;;;14.90;5.80;;;;;;;;;;5249752;27;20003;-75
2024/04/22 06:31:07;;;;;;;10.70;4.90;;;;;;;;;;5256718;27;19995;-76
2024/04/22 06:33:33;;;;;;;8.93;5.30;;;;;;;;;;5264320;27;20002;-76
2024/04/22 06:36:02;;;;;;;11.00;5.53;;;;;;;;;;5249459;27;21472;-76
2024/04/22 06:38:30;;;;;;;9.33;5.20;;;;;;;;;;5239914;27;20080;-77
2024/04/22 06:40:56;;;;;;;10.27;6.00;;;;;;;;;;5223364;27;20003;-76
2024/04/22 06:43:22;;;;;;;9.60;5.93;;;;;;;;;;5230769;27;20043;-76
2024/04/22 06:45:47;;;;;;;9.73;6.33;;;;;;;;;;5228058;27;20042;-75
2024/04/22 06:48:13;;;;;;;13.23;6.33;;;;;;;;;;5226879;27;20071;-76
2024/04/22 06:50:46;;;;;;;7.63;5.37;;;;;;;;;;5217740;27;20082;-78
2024/04/22 06:53:12;;;;;;;11.60;5.93;;;;;;;;;;5203591;27;20004;-75
2024/04/22 06:55:38;;;;;;;11.13;5.23;;;;;;;;;;5195782;27;20443;-73
2024/04/22 06:58:04;;;;;;;11.00;5.70;;;;;;;;;;5190548;27;20056;-76
2024/04/22 07:00:30;;;;;;;9.30;5.53;;;;;;;;;;5195794;27;20028;-74
2024/04/22 07:02:56;;;;;;;8.87;5.33;;;;;;;;;;5195598;27;20384;-76
2024/04/22 07:05:22;;;;;;;8.63;5.63;;;;;;;;;;5197389;27;20082;-75
2024/04/22 07:07:50;;;;;;;10.87;5.53;;;;;;;;;;5221439;27;20549;-76
2024/04/22 07:10:16;;;;;;;10.83;6.13;;;;;;;;;;5189649;27;20004;-74
2024/04/22 07:12:42;;;;;;;10.03;5.37;;;;;;;;;;5178468;27;20082;-74
2024/04/22 07:15:08;;;;;;;8.97;6.13;;;;;;;;;;5185140;27;20500;-75
2024/04/22 07:17:34;;;;;;;8.93;5.23;;;;;;;;;;5182066;27;20010;-75
2024/04/22 07:20:01;;;;;;;11.13;6.60;;;;;;;;;;5180929;27;20063;-76
2024/04/22 07:22:28;;;;;;;9.57;5.73;;;;;;;;;;5185777;27;20023;-73
2024/04/22 07:24:54;;;;;;;11.63;5.83;;;;;;;;;;5191515;27;20585;-73
2024/04/22 07:27:23;;;;;;;9.87;5.93;;;;;;;;;;5192736;27;20515;-71
2024/04/22 07:29:49;;;;;;;10.00;5.93;;;;;;;;;;5191443;27;20008;-73
2024/04/22 07:32:15;;;;;;;12.50;7.43;;;;;;;;;;5190346;27;20075;-75
2024/04/22 07:34:42;;;;;;;9.67;5.70;;;;;;;;;;5192687;27;20016;-73
2024/04/22 07:37:07;;;;;;;9.33;6.43;;;;;;;;;;5192851;27;20207;-74
2024/04/22 07:39:35;;;;;;;10.30;6.10;;;;;;;;;;5191507;27;20637;-73
2024/04/22 07:42:03;;;;;;;8.03;5.70;;;;;;;;;;5180817;27;20077;-74
2024/04/22 07:44:29;;;;;;;10.20;6.13;;;;;;;;;;5214722;27;20304;-74
2024/04/22 07:46:55;;;;;;;8.37;5.83;;;;;;;;;;5191020;27;20015;-74
2024/04/22 07:49:22;;;;;;;8.57;6.27;;;;;;;;;;5194402;27;20007;-72
2024/04/22 07:51:48;;;;;;;11.80;6.70;;;;;;;;;;5216172;27;20134;-73
2024/04/22 07:54:13;;;;;;;9.10;6.20;;;;;;;;;;5266038;27;20072;-75
2024/04/22 07:56:39;;;;;;;10.53;5.70;;;;;;;;;;5240098;27;20002;-75
2024/04/22 07:59:09;;;;;;;12.83;6.40;;;;;;;;;;5221784;27;20021;-74
2024/04/22 08:01:35;;;;;;;7.87;5.60;;;;;;;;;;5254732;27;20613;-76
2024/04/22 08:04:02;;;;;;;10.63;6.17;;;;;;;;;;5264055;27;20002;-76
2024/04/22 08:06:36;;;;;;;10.63;5.50;;;;;;;;;;5231780;27;20021;-75
2024/04/22 08:09:02;;;;;;;7.50;4.87;;;;;;;;;;5223707;27;20106;-75
2024/04/22 08:11:30;;;;;;;7.23;4.73;;;;;;;;;;5196852;27;19994;-75
2024/04/22 08:13:56;;;;;;;9.37;5.30;;;;;;;;;;5210067;27;19998;-74
2024/04/22 08:16:23;;;;;;;7.90;5.90;;;;;;;;;;5237310;27;20439;-73
2024/04/22 08:18:49;;;;;;;7.53;4.83;;;;;;;;;;5264924;27;20011;-73
2024/04/22 08:21:15;;;;;;;10.70;5.70;;;;;;;;;;5254587;27;20104;-73
2024/04/22 08:23:42;;;;;;;8.07;5.17;;;;;;;;;;5234189;27;20003;-74
2024/04/22 08:26:10;;;;;;;6.72;4.82;;;;;;;;;;5250307;27;20065;-73
2024/04/22 08:28:36;;;;;;;8.32;5.32;;;;;;;;;;5229401;27;20426;-74
2024/04/22 08:31:12;;;;;;;8.87;5.27;;;;;;;;;;5254402;27;19999;-75
2024/04/22 08:33:41;;;;;;;10.17;5.70;;;;;;;;;;5235784;27;19999;-73
2024/04/22 08:36:09;;;;;;;13.97;6.97;;;;;;;;;;5236600;27;20693;-75
2024/04/22 08:38:36;;;;;;;9.40;5.57;;;;;;;;;;5237225;27;19998;-76
2024/04/22 08:41:02;;;;;;;9.27;5.57;;;;;;;;;;5230509;27;20016;-76
2024/04/22 08:43:28;;;;;;;10.13;5.40;;;;;;;;;;5232151;27;20455;-74
2024/04/22 08:45:54;;;;;;;10.77;5.30;;;;;;;;;;5238388;27;20013;-76
2024/04/22 08:48:20;;;;;;;15.40;6.33;;;;;;;;;;5236919;27;20023;-74
2024/04/22 08:50:48;;;;;;;7.40;5.27;;;;;;;;;;5257169;27;20561;-72
2024/04/22 08:53:14;;;;;;;10.57;6.37;;;;;;;;;;5262089;27;19998;-75
2024/04/22 08:55:40;;;;;;;7.67;5.03;;;;;;;;;;5238904;27;20489;-75
2024/04/22 08:58:09;;;;;;;8.17;5.70;;;;;;;;;;5208283;27;20017;-74
2024/04/22 09:00:36;;;;;;;11.13;5.13;;;;;;;;;;5234457;27;20461;-73
2024/04/22 09:03:03;;;;;;;15.30;5.83;;;;;;;;;;5236012;27;20021;-76
2024/04/22 09:05:30;;;;;;;9.30;4.23;;;;;;;;;;5227336;27;20006;-76
2024/04/22 09:08:05;;;;;;;5.80;4.07;;;;;;;;;;5239178;27;20012;-76
2024/04/22 09:10:45;;;;;;;7.60;3.97;;;;;;;;;;5258913;27;20443;-75
2024/04/22 09:13:16;;;;;;;8.50;4.33;;;;;;;;;;5223952;27;20118;-75
2024/04/22 09:15:42;;;;;;;5.73;4.23;;;;;;;;;;5238678;27;20061;-77
2024/04/22 09:18:14;;;;;;;9.30;4.07;;;;;;;;;;5244005;27;20014;-77
2024/04/22 09:20:40;;;;;;;25.83;9.87;;;;;;;;;;5228041;27;20187;-76
2024/04/22 09:23:07;;;;;;;11.20;4.13;;;;;;;;;;5279273;27;20465;-76
2024/04/22 09:25:32;;;;;;;8.48;4.38;;;;;;;;;;5222493;27;20426;-76
2024/04/22 09:28:00;;;;;;;12.55;4.70;;;;;;;;;;5251044;27;20002;-76
2024/04/22 09:30:29;;;;;;;6.25;4.35;;;;;;;;;;5270139;27;20018;-75
2024/04/22 09:32:59;;;;;;;8.00;4.80;;;;;;;;;;5231429;27;20017;-78
2024/04/22 09:35:25;;;;;;;9.95;4.93;;;;;;;;;;5272171;27;20002;-75
2024/04/22 09:37:52;;;;;;;6.07;4.68;;;;;;;;;;5242745;27;20085;-76
2024/04/22 09:40:21;;;;;;;16.85;4.20;;;;;;;;;;5267097;27;20029;-75
2024/04/22 09:42:47;;;;;;;6.50;4.22;;;;;;;;;;5276288;27;20017;-79
2024/04/22 09:45:14;;;;;;;6.68;4.22;;;;;;;;;;5241315;27;20346;-77
2024/04/22 09:47:41;;;;;;;7.63;4.20;;;;;;;;;;5230394;27;20046;-75
2024/04/22 09:50:08;;;;;;;6.38;3.40;;;;;;;;;;5247455;27;20026;-76
2024/04/22 09:52:35;;;;;;;4.55;3.65;;;;;;;;;;5232128;27;20015;-73
2024/04/22 09:55:02;;;;;;;6.72;6.13;;;;;;;;;;5234276;27;20101;-73
2024/04/22 09:57:30;;;;;;;14.95;3.80;;;;;;;;;;5237755;27;20432;-75
2024/04/22 09:59:57;;;;;;;5.75;4.07;;;;;;;;;;5235346;27;20015;-76
2024/04/22 10:02:23;;;;;;;7.07;3.50;;;;;;;;;;5224036;27;19999;-74
2024/04/22 10:04:49;;;;;;;5.50;2.95;;;;;;;;;;5233957;27;19999;-73
2024/04/22 10:10:09;;;;;;;5.93;4.07;;;;;;;;;;5227440;27;19999;-76
2024/04/22 10:12:35;;;;;;;6.43;3.70;;;;;;;;;;5228536;27;20018;-77
2024/04/22 10:15:15;;;;;;;8.38;3.47;;;;;;;;;;5227996;27;20035;-75
2024/04/22 10:17:43;;;;;;;7.25;4.22;;;;;;;;;;5228876;27;20075;-73
2024/04/22 10:20:12;;;;;;;8.52;3.85;;;;;;;;;;5227985;27;20011;-74
2024/04/22 10:22:38;;;;;;;6.40;3.50;;;;;;;;;;5228624;27;20021;-77
2024/04/22 10:25:05;;;;;;;7.35;4.30;;;;;;;;;;5207461;27;20434;-76
2024/04/22 10:27:40;;;;;;;12.35;5.88;;;;;;;;;;5197613;27;19998;-75
2024/04/22 10:30:06;;;;;;;5.50;4.03;;;;;;;;;;5238937;27;20438;-75
2024/04/22 10:32:36;;;;;;;7.22;3.72;;;;;;;;;;5247628;27;20015;-76
2024/04/22 10:35:01;;;;;;;13.77;5.75;;;;;;;;;;5247455;27;20269;-76
2024/04/22 10:37:27;;;;;;;5.65;3.80;;;;;;;;;;5224671;27;19995;-74
2024/04/22 10:39:53;;;;;;;8.27;3.95;;;;;;;;;;5232287;27;20309;-75
2024/04/22 10:42:19;;;;;;;5.53;3.35;;;;;;;;;;5250078;27;20390;-74
2024/04/22 10:44:45;;;;;;;6.50;3.28;;;;;;;;;;5220991;27;19999;-75
2024/04/22 10:47:11;;;;;;;8.50;3.88;;;;;;;;;;5228294;27;20667;-77
2024/04/22 10:49:37;;;;;;;7.50;3.92;;;;;;;;;;5233994;27;20003;-77
2024/04/22 10:52:04;;;;;;;6.93;4.00;;;;;;;;;;5231401;27;20021;-75
2024/04/22 10:54:30;;;;;;;8.45;4.10;;;;;;;;;;5228832;27;20007;-75
2024/04/22 10:56:55;;;;;;;8.23;4.30;;;;;;;;;;5232803;27;20446;-76
2024/04/22 10:59:21;;;;;;;4.13;3.10;;;;;;;;;;5225370;27;20043;-75
2024/04/22 11:01:49;;;;;;;6.15;3.60;;;;;;;;;;5249469;27;20022;-76
2024/04/22 11:04:16;;;;;;;7.95;4.07;;;;;;;;;;5243073;27;20569;-76
2024/04/22 11:06:43;;;;;;;5.40;3.35;;;;;;;;;;5228917;27;20007;-75
2024/04/22 11:09:10;;;;;;;5.70;3.35;;;;;;;;;;5243020;27;20017;-77
2024/04/22 11:11:36;;;;;;;5.90;3.53;;;;;;;;;;5232067;27;20452;-76
2024/04/22 11:14:03;;;;;;;4.43;2.95;;;;;;;;;;5227043;27;19995;-75
2024/04/22 11:16:29;;;;;;;14.75;4.35;;;;;;;;;;5227730;27;20007;-76
2024/04/22 11:19:05;;;;;;;14.27;3.70;;;;;;;;;;5233954;27;20103;-74
2024/04/22 11:21:34;;;;;;;5.13;3.05;;;;;;;;;;5224927;27;20054;-78
2024/04/22 11:24:04;;;;;;;7.53;3.35;;;;;;;;;;5231934;27;20103;-75
2024/04/22 11:26:31;;;;;;;4.88;2.92;;;;;;;;;;5231718;27;20003;-76
2024/04/22 11:28:58;;;;;;;5.88;3.08;;;;;;;;;;5236177;27;20039;-77
2024/04/22 11:31:25;;;;;;;6.90;3.60;;;;;;;;;;5240803;27;20427;-75
2024/04/22 11:33:55;;;;;;;4.45;2.95;;;;;;;;;;5240430;27;20007;-75
2024/04/22 11:36:30;;;;;;;4.30;2.50;;;;;;;;;;5228659;27;20003;-77
2024/04/22 11:38:56;;;;;;;4.07;2.80;;;;;;;;;;5236547;27;20011;-76
2024/04/22 11:41:22;;;;;;;3.33;2.83;;;;;;;;;;5234157;27;20003;-75
2024/04/22 11:43:47;;;;;;;3.95;2.88;;;;;;;;;;5237272;27;20081;-76
2024/04/22 11:46:14;;;;;;;6.03;3.33;;;;;;;;;;5231166;27;20022;-75
2024/04/22 11:48:40;;;;;;;7.07;4.25;;;;;;;;;;5241073;27;20007;-75
2024/04/22 11:51:07;;;;;;;5.15;3.00;;;;;;;;;;5241316;27;20230;-77
2024/04/22 11:53:33;;;;;;;10.85;3.33;;;;;;;;;;5225891;27;20018;-77
2024/04/22 11:55:59;;;;;;;5.05;3.47;;;;;;;;;;5229484;27;20398;-75
2024/04/22 11:58:25;;;;;;;4.43;3.03;;;;;;;;;;5230482;27;20003;-76
2024/04/22 12:00:51;;;;;;;5.72;3.35;;;;;;;;;;5232931;27;20093;-77
2024/04/22 12:03:16;;;;;;;6.32;3.35;;;;;;;;;;5234050;27;20098;-77
2024/04/22 12:05:42;;;;;;;5.45;3.17;;;;;;;;;;5228424;27;20447;-75
2024/04/22 12:08:08;;;;;;;4.80;3.47;;;;;;;;;;5232061;27;20035;-76
2024/04/22 12:10:34;;;;;;;4.63;2.97;;;;;;;;;;5240436;27;20054;-75
2024/04/22 12:13:00;;;;;;;5.28;3.15;;;;;;;;;;5234100;27;20043;-76
2024/04/22 12:15:27;;;;;;;5.65;3.40;;;;;;;;;;5228159;27;20088;-76
2024/04/22 12:17:53;;;;;;;3.72;2.60;;;;;;;;;;5235978;27;20014;-75
2024/04/22 12:20:19;;;;;;;7.45;3.35;;;;;;;;;;5232353;27;20066;-76
2024/04/22 12:22:46;;;;;;;5.78;3.40;;;;;;;;;;5235943;27;20018;-76
2024/04/22 12:25:12;;;;;;;4.85;3.17;;;;;;;;;;5229115;27;20003;-74
2024/04/22 12:27:37;;;;;;;3.72;3.25;;;;;;;;;;5234890;27;20010;-77
2024/04/22 12:30:03;;;;;;;5.65;3.60;;;;;;;;;;5232892;27;20080;-76
2024/04/22 12:32:29;;;;;;;6.15;3.60;;;;;;;;;;5238754;27;20086;-78
2024/04/22 12:34:57;;;;;;;4.40;3.13;;;;;;;;;;5237259;27;20015;-76
2024/04/22 12:37:24;;;;;;;5.90;3.15;;;;;;;;;;5237689;27;19999;-74
2024/04/22 12:39:50;;;;;;;5.40;3.53;;;;;;;;;;5234456;27;20548;-78
2024/04/22 12:42:16;;;;;;;7.53;3.70;;;;;;;;;;5236246;27;20504;-76
2024/04/22 12:44:42;;;;;;;5.03;3.05;;;;;;;;;;5197353;27;20051;-78
2024/04/22 12:52:37;;;;;;;4.63;2.90;;;;;;;;;;5231704;27;20018;-74
2024/04/22 12:55:03;;;;;;;5.00;2.53;;;;;;;;;;5230381;27;20047;-76
2024/04/22 12:57:29;;;;;;;5.07;2.80;;;;;;;;;;5227110;27;20054;-76
2024/04/22 12:59:58;;;;;;;4.57;3.03;;;;;;;;;;5231643;27;20456;-77
2024/04/22 13:02:27;;;;;;;4.75;2.83;;;;;;;;;;5229772;27;20066;-73
2024/04/22 13:04:53;;;;;;;5.55;3.63;;;;;;;;;;5227191;27;20014;-78
2024/04/22 13:07:19;;;;;;;3.88;3.05;;;;;;;;;;5229268;27;20030;-75
2024/04/22 13:09:45;;;;;;;4.13;2.25;;;;;;;;;;5229077;27;20463;-77
2024/04/22 13:12:11;;;;;;;3.83;2.92;;;;;;;;;;5230140;27;20025;-76
2024/04/22 13:14:37;;;;;;;4.45;2.63;;;;;;;;;;5202136;27;20443;-76
2024/04/22 13:17:03;;;;;;;6.70;3.55;;;;;;;;;;5229813;27;20003;-75
2024/04/22 13:19:29;;;;;;;5.68;3.15;;;;;;;;;;5236374;27;20046;-76
2024/04/22 13:21:55;;;;;;;3.88;2.47;;;;;;;;;;5229978;27;20537;-75
2024/04/22 13:24:21;;;;;;;4.93;3.70;;;;;;;;;;5229751;27;20062;-76
2024/04/22 13:26:46;;;;;;;4.90;2.83;;;;;;;;;;5227614;27;20021;-77
2024/04/22 13:29:12;;;;;;;4.35;2.88;;;;;;;;;;5230891;27;20010;-74
2024/04/22 13:31:38;;;;;;;8.73;2.78;;;;;;;;;;5229346;27;20003;-75
2024/04/22 13:34:03;;;;;;;7.38;2.70;;;;;;;;;;5232597;27;20022;-77
2024/04/22 13:36:30;;;;;;;7.50;3.33;;;;;;;;;;5225663;27;19999;-75
2024/04/22 13:38:57;;;;;;;4.55;2.60;;;;;;;;;;5228263;27;20003;-76
2024/04/22 13:41:24;;;;;;;2.67;2.47;;;;;;;;;;5229228;27;20525;-76
2024/04/22 13:43:50;;;;;;;4.28;2.45;;;;;;;;;;5231178;27;20010;-76
2024/04/22 13:46:16;;;;;;;4.28;2.90;;;;;;;;;;5222702;27;20003;-76
2024/04/22 13:48:48;;;;;;;5.05;2.65;;;;;;;;;;5255671;27;20010;-76
2024/04/22 13:51:17;;;;;;;6.68;2.95;;;;;;;;;;5234473;27;20322;-75
2024/04/22 13:53:43;;;;;;;8.05;3.47;;;;;;;;;;5236748;27;20013;-75
2024/04/22 13:56:10;;;;;;;4.30;3.10;;;;;;;;;;5260265;27;20122;-77
2024/04/22 13:58:36;;;;;;;4.55;2.63;;;;;;;;;;5265810;27;20006;-76
2024/04/22 14:01:01;;;;;;;8.25;3.58;;;;;;;;;;5239912;27;20139;-75
2024/04/22 14:03:27;;;;;;;4.68;2.83;;;;;;;;;;5239647;27;20002;-77
2024/04/22 14:05:53;;;;;;;7.90;2.60;;;;;;;;;;5264614;27;20034;-77
2024/04/22 14:08:18;;;;;;;5.60;2.78;;;;;;;;;;5236014;27;20006;-77
2024/04/22 14:10:44;;;;;;;6.70;2.90;;;;;;;;;;5265766;27;20009;-75
2024/04/22 14:13:09;;;;;;;5.32;2.75;;;;;;;;;;5236070;27;20105;-76
2024/04/22 14:15:35;;;;;;;4.78;2.25;;;;;;;;;;5260187;27;20006;-76
2024/04/22 14:18:01;;;;;;;2.53;1.92;;;;;;;;;;5234648;27;20006;-77
2024/04/22 14:20:26;;;;;;;2.70;2.00;;;;;;;;;;5264481;27;19994;-75
2024/04/22 14:22:52;;;;;;;4.85;2.38;;;;;;;;;;5262266;27;20442;-76
2024/04/22 14:25:17;;;;;;;6.93;2.80;;;;;;;;;;5254109;27;20007;-76
2024/04/22 14:27:43;;;;;;;3.03;2.00;;;;;;;;;;5237178;27;20021;-75
2024/04/22 14:30:09;;;;;;;4.55;2.47;;;;;;;;;;5237994;27;20002;-75
2024/04/22 14:32:35;;;;;;;2.65;1.92;;;;;;;;;;5232894;27;20006;-75
2024/04/22 14:35:01;;;;;;;7.93;3.53;;;;;;;;;;5208129;27;20042;-76
2024/04/22 14:37:27;;;;;;;6.13;2.25;;;;;;;;;;5236269;27;20026;-75
2024/04/22 14:39:53;;;;;;;3.28;2.20;;;;;;;;;;5237878;27;20038;-75
2024/04/22 14:42:19;;;;;;;5.10;2.10;;;;;;;;;;5243959;27;20010;-75
2024/04/22 14:44:44;;;;;;;3.88;2.47;;;;;;;;;;5244768;27;20014;-77
2024/04/22 14:47:10;;;;;;;4.45;2.30;;;;;;;;;;5244026;27;20057;-77
2024/04/22 14:49:36;;;;;;;3.45;2.30;;;;;;;;;;5243331;27;20002;-76